Time;durP1;ratioP1;P1;durP2;ratioP2;P2;SDS_P1;SDS_P2;PMS_P1;PMS_P2;Temp;Humidity;BMP_temperature;BMP_pressure;BME280_temperature;BME280_humidity;BME280_pressure;Samples;Min_cycle;Max_cycle;Signal;HPM_P1;HPM_P2
2021/06/05 03:03:07;;;;;;;15.27;6.07;;;16.30;99.90;;;;;;5123177;23;93301;-82
2021/06/05 03:05:34;;;;;;;5.10;4.80;;;16.60;99.90;;;;;;4954000;28;91920;-83
2021/06/05 03:08:00;;;;;;;5.03;4.63;;;16.30;99.90;;;;;;4954859;28;92038;-82
2021/06/05 03:10:30;;;;;;;5.43;5.03;;;16.30;99.90;;;;;;4966580;28;93130;-82
2021/06/05 03:12:57;;;;;;;6.90;4.82;;;16.30;99.90;;;;;;4957040;28;91827;-84
2021/06/05 03:15:24;;;;;;;5.00;4.63;;;16.60;99.90;;;;;;4964035;28;92126;-83
2021/06/05 03:17:50;;;;;;;5.65;5.15;;;16.40;99.90;;;;;;4966689;28;93200;-83
2021/06/05 03:20:20;;;;;;;5.50;5.10;;;16.30;99.90;;;;;;4957601;28;93598;-82
2021/06/05 03:22:46;;;;;;;5.72;5.32;;;16.50;99.90;;;;;;4959416;28;91570;-83
2021/06/05 03:25:12;;;;;;;5.55;4.35;;;16.50;99.90;;;;;;4967542;28;91885;-82
2021/06/05 03:27:38;;;;;;;5.75;5.25;;;16.40;99.90;;;;;;4963323;28;92529;-83
2021/06/05 03:30:06;;;;;;;4.82;4.35;;;16.40;99.90;;;;;;4946721;28;92043;-82
2021/06/05 03:32:32;;;;;;;5.28;4.63;;;16.30;99.90;;;;;;4956717;28;92126;-83
2021/06/05 03:34:57;;;;;;;5.35;4.95;;;16.50;99.90;;;;;;4963029;28;91427;-83
2021/06/05 03:37:23;;;;;;;6.15;5.55;;;16.30;99.90;;;;;;4962813;28;92306;-83
2021/06/05 03:39:49;;;;;;;5.40;5.00;;;16.50;99.90;;;;;;4964794;28;91804;-83
2021/06/05 03:42:15;;;;;;;5.22;4.93;;;16.40;99.90;;;;;;4965513;28;94454;-83
2021/06/05 03:44:42;;;;;;;5.80;5.15;;;16.40;99.90;;;;;;4963568;28;92477;-82
2021/06/05 03:47:08;;;;;;;5.45;4.95;;;16.30;99.90;;;;;;4962415;28;92247;-82
2021/06/05 03:49:34;;;;;;;6.28;5.75;;;16.20;99.90;;;;;;4950164;28;92148;-82
2021/06/05 03:52:00;;;;;;;6.00;5.60;;;16.20;99.90;;;;;;4957189;28;91993;-84
2021/06/05 03:54:26;;;;;;;6.95;6.28;;;16.30;99.90;;;;;;4959308;28;92079;-82
2021/06/05 03:56:52;;;;;;;7.07;6.47;;;16.60;99.90;;;;;;4962569;28;92567;-83
2021/06/05 03:59:18;;;;;;;7.40;6.72;;;16.40;99.90;;;;;;4951564;28;91224;-83
2021/06/05 04:01:44;;;;;;;10.38;6.93;;;16.30;99.90;;;;;;4953877;28;92358;-84
2021/06/05 04:04:10;;;;;;;8.18;7.40;;;16.70;99.90;;;;;;4933110;28;96949;-83
2021/06/05 04:06:36;;;;;;;8.70;7.90;;;16.40;99.90;;;;;;4943814;28;93951;-83
2021/06/05 04:09:03;;;;;;;9.10;8.20;;;16.50;99.90;;;;;;4942639;28;93732;-83
2021/06/05 04:11:29;;;;;;;8.15;7.45;;;16.50;99.90;;;;;;4945894;28;91936;-82
2021/06/05 04:13:56;;;;;;;8.73;7.93;;;16.30;99.90;;;;;;4946184;28;91498;-82
2021/06/05 04:16:23;;;;;;;11.48;9.55;;;16.60;99.90;;;;;;4942457;28;92130;-84
2021/06/05 04:18:49;;;;;;;9.00;7.75;;;16.60;99.90;;;;;;4944911;28;91971;-82
2021/06/05 04:21:19;;;;;;;8.85;7.47;;;16.50;99.90;;;;;;4939097;28;91869;-83
2021/06/05 04:23:46;;;;;;;9.97;8.10;;;16.60;99.90;;;;;;4945709;28;91339;-82
2021/06/05 04:26:12;;;;;;;8.88;7.82;;;16.70;99.90;;;;;;4942294;28;93180;-83
2021/06/05 04:28:39;;;;;;;9.48;7.90;;;16.70;99.90;;;;;;4940907;28;91951;-83
2021/06/05 04:31:06;;;;;;;8.70;7.90;;;16.70;99.90;;;;;;4938052;28;92908;-84
2021/06/05 04:33:33;;;;;;;8.60;7.70;;;17.00;99.90;;;;;;4943829;28;92170;-82
2021/06/05 04:36:03;;;;;;;8.30;7.28;;;16.90;99.90;;;;;;4944222;28;92149;-82
2021/06/05 04:38:29;;;;;;;7.88;7.10;;;16.80;99.90;;;;;;4944021;28;91929;-83
2021/06/05 04:40:55;;;;;;;7.82;7.05;;;17.00;99.90;;;;;;4945724;28;91661;-84
2021/06/05 04:43:22;;;;;;;8.40;6.90;;;17.50;99.90;;;;;;4945301;28;92363;-83
2021/06/05 04:45:48;;;;;;;7.75;6.95;;;17.10;99.90;;;;;;4945917;28;91861;-83
2021/06/05 04:48:15;;;;;;;8.45;6.82;;;17.40;99.90;;;;;;4947647;28;91372;-83
2021/06/05 04:50:43;;;;;;;7.90;6.88;;;17.20;99.90;;;;;;4936440;28;92152;-83
2021/06/05 04:53:09;;;;;;;7.55;6.63;;;16.90;99.90;;;;;;4948500;28;91994;-83
2021/06/05 04:55:35;;;;;;;7.22;6.53;;;17.00;99.90;;;;;;4938898;28;93234;-84
2021/06/05 04:58:03;;;;;;;7.80;6.85;;;17.00;99.90;;;;;;4946048;28;92151;-84
2021/06/05 05:00:44;;;;;;;9.63;6.75;;;17.00;99.90;;;;;;4945329;28;92068;-83
2021/06/05 05:03:11;;;;;;;7.47;6.78;;;17.00;99.90;;;;;;4938265;28;91582;-82
2021/06/05 05:05:38;;;;;;;8.90;6.80;;;17.00;99.90;;;;;;4938805;28;93096;-83
2021/06/05 05:08:05;;;;;;;7.03;6.35;;;16.90;99.90;;;;;;4950136;28;92205;-83
2021/06/05 05:10:35;;;;;;;6.43;5.82;;;17.20;99.90;;;;;;4945755;28;91984;-84
2021/06/05 05:13:02;;;;;;;7.53;6.83;;;17.40;99.90;;;;;;4936200;28;91829;-83
2021/06/05 05:15:28;;;;;;;7.18;6.47;;;17.30;99.90;;;;;;4946663;28;93224;-84
2021/06/05 05:17:54;;;;;;;7.30;6.55;;;17.30;99.90;;;;;;4922521;28;94905;-86
2021/06/05 05:20:25;;;;;;;6.35;5.78;;;17.50;99.90;;;;;;4951959;28;93002;-84
2021/06/05 05:22:51;;;;;;;;;;;17.50;99.90;;;;;;4955408;28;92582;-84
2021/06/05 05:25:17;;;;;;;6.22;5.70;;;17.70;99.90;;;;;;4952802;28;93276;-84
2021/06/05 05:27:43;;;;;;;8.15;7.15;;;18.00;99.90;;;;;;4953544;28;92107;-82
2021/06/05 05:30:14;;;;;;;6.35;5.78;;;18.40;99.90;;;;;;4947092;28;92069;-83
2021/06/05 05:32:40;;;;;;;7.18;6.50;;;18.00;99.90;;;;;;4951439;28;92115;-83
2021/06/05 05:35:07;;;;;;;7.47;6.57;;;18.20;99.90;;;;;;4954497;28;91848;-83
2021/06/05 05:37:34;;;;;;;6.95;6.25;;;18.20;99.90;;;;;;4946626;28;93753;-84
2021/06/05 05:40:00;;;;;;;7.47;6.88;;;18.20;99.90;;;;;;4948121;28;92040;-83
2021/06/05 05:42:26;;;;;;;6.22;5.70;;;18.40;99.90;;;;;;4951618;28;92361;-84
2021/06/05 05:44:51;;;;;;;7.35;6.47;;;18.50;99.90;;;;;;4951441;28;92795;-83
2021/06/05 05:47:17;;;;;;;7.13;6.53;;;18.90;99.90;;;;;;4954514;28;93286;-85
2021/06/05 05:49:43;;;;;;;7.13;6.28;;;18.50;99.90;;;;;;4950309;28;92245;-84
2021/06/05 05:52:08;;;;;;;6.47;5.97;;;19.00;99.90;;;;;;4950297;28;91934;-84
2021/06/05 05:54:34;;;;;;;7.18;6.47;;;18.70;99.90;;;;;;4948673;28;93665;-84
2021/06/05 05:57:00;;;;;;;6.80;6.20;;;18.80;99.90;;;;;;4951460;28;92091;-84
2021/06/05 05:59:26;;;;;;;7.03;6.43;;;18.90;99.90;;;;;;4959318;28;91683;-82
2021/06/05 06:01:53;;;;;;;6.65;6.00;;;18.90;99.90;;;;;;4951268;28;90537;-83
2021/06/05 06:04:19;;;;;;;6.65;6.05;;;19.00;99.90;;;;;;4948907;28;92650;-83
2021/06/05 06:06:45;;;;;;;8.05;5.97;;;19.10;99.90;;;;;;4943770;28;93336;-82
2021/06/05 06:09:11;;;;;;;6.63;6.10;;;19.10;99.90;;;;;;4952286;28;92974;-84
2021/06/05 06:11:36;;;;;;;6.43;5.82;;;19.10;99.90;;;;;;4948296;28;92085;-83
2021/06/05 06:14:02;;;;;;;6.93;6.32;;;;;;;;;;4945714;28;92183;-83
2021/06/05 06:16:30;;;;;;;6.80;6.10;;;19.20;99.90;;;;;;4942265;28;92489;-84
2021/06/05 06:18:56;;;;;;;7.57;5.95;;;19.50;99.90;;;;;;4949595;28;91946;-83
2021/06/05 06:21:23;;;;;;;5.72;5.13;;;19.50;99.90;;;;;;4935904;28;91990;-86
2021/06/05 06:23:49;;;;;;;6.03;5.20;;;19.70;99.90;;;;;;4938004;28;92204;-83
2021/06/05 06:26:24;;;;;;;5.43;5.03;;;19.80;99.90;;;;;;4945305;28;93982;-84
2021/06/05 06:28:50;;;;;;;6.13;5.63;;;19.90;99.90;;;;;;4944420;28;92026;-81
2021/06/05 06:31:19;;;;;;;5.30;4.88;;;19.90;99.90;;;;;;4949418;28;91315;-85
2021/06/05 06:33:45;;;;;;;5.20;4.70;;;20.10;99.90;;;;;;4943083;28;93915;-84
2021/06/05 06:36:12;;;;;;;5.43;4.93;;;20.20;99.90;;;;;;4947358;28;91954;-84
2021/06/05 06:38:44;;;;;;;5.47;4.97;;;20.30;99.90;;;;;;4940745;28;91965;-85
2021/06/05 06:41:13;;;;;;;5.38;4.97;;;20.30;99.90;;;;;;4950594;28;91959;-84
2021/06/05 06:43:39;;;;;;;5.55;4.82;;;20.40;99.90;;;;;;4934474;28;92552;-85
2021/06/05 06:46:10;;;;;;;6.50;4.72;;;20.40;99.90;;;;;;4943679;28;92470;-85
2021/06/05 06:48:36;;;;;;;7.00;5.20;;;20.50;99.90;;;;;;4946084;28;91224;-85
2021/06/05 06:51:03;;;;;;;5.50;5.05;;;20.60;99.90;;;;;;4955052;28;91208;-86
2021/06/05 06:53:29;;;;;;;5.40;4.97;;;20.70;99.90;;;;;;4942998;28;91730;-85
2021/06/05 06:55:55;;;;;;;4.85;4.45;;;20.80;99.90;;;;;;4942895;28;91937;-84
2021/06/05 06:58:21;;;;;;;5.80;5.07;;;20.90;99.90;;;;;;4944811;28;93794;-85
2021/06/05 07:00:48;;;;;;;5.75;5.25;;;20.90;99.90;;;;;;4952953;28;91612;-84
2021/06/05 07:03:15;;;;;;;5.60;5.20;;;21.00;99.90;;;;;;4939587;28;92417;-86
2021/06/05 07:05:41;;;;;;;5.63;5.15;;;21.10;99.90;;;;;;4950159;28;92167;-85
2021/06/05 07:08:14;;;;;;;6.53;5.32;;;21.10;99.90;;;;;;4950268;28;91570;-86
2021/06/05 07:10:40;;;;;;;9.23;4.78;;;21.20;99.90;;;;;;4951769;28;91860;-87
2021/06/05 07:13:06;;;;;;;5.43;4.72;;;21.30;99.90;;;;;;4948947;28;92054;-86
2021/06/05 07:15:34;;;;;;;4.97;4.35;;;21.50;99.90;;;;;;4932245;28;91909;-84
2021/06/05 07:18:01;;;;;;;5.20;4.68;;;21.50;99.90;;;;;;4929962;28;92570;-85
2021/06/05 07:20:28;;;;;;;5.32;4.47;;;21.60;99.90;;;;;;4949130;28;91990;-86
2021/06/05 07:22:54;;;;;;;5.38;4.88;;;21.70;99.90;;;;;;4946937;28;93423;-86
2021/06/05 07:25:20;;;;;;;6.10;4.45;;;21.80;99.90;;;;;;4935010;28;93087;-83
2021/06/05 07:27:46;;;;;;;5.53;4.85;;;22.00;99.90;;;;;;4945489;28;91790;-86
2021/06/05 07:30:13;;;;;;;5.10;4.70;;;22.20;99.90;;;;;;4944614;28;92119;-86
2021/06/05 07:32:39;;;;;;;5.00;4.70;;;22.40;99.90;;;;;;4942828;28;92075;-78
2021/06/05 07:35:06;;;;;;;5.00;4.60;;;22.60;99.90;;;;;;4925072;28;92139;-78
2021/06/05 07:37:32;;;;;;;5.82;4.88;;;22.90;99.90;;;;;;4936279;28;92211;-79
2021/06/05 07:39:57;;;;;;;5.43;5.00;;;22.90;99.90;;;;;;4944494;28;91276;-79
2021/06/05 07:42:23;;;;;;;5.13;4.68;;;23.00;99.90;;;;;;4939316;28;92140;-79
2021/06/05 07:44:50;;;;;;;5.57;4.80;;;22.90;99.90;;;;;;4938688;28;92552;-79
2021/06/05 07:47:15;;;;;;;5.50;4.90;;;23.20;99.90;;;;;;4936565;28;93288;-77
2021/06/05 07:49:41;;;;;;;5.85;5.35;;;23.60;99.90;;;;;;4943103;28;91913;-77
2021/06/05 07:52:10;;;;;;;5.82;5.05;;;23.30;99.90;;;;;;4939978;28;92340;-78
2021/06/05 07:54:36;;;;;;;3.70;3.40;;;23.30;99.90;;;;;;4942126;28;91916;-78
2021/06/05 07:57:03;;;;;;;5.68;3.70;;;23.30;99.90;;;;;;4943548;28;92074;-77
2021/06/05 07:59:29;;;;;;;4.97;4.68;;;23.50;99.90;;;;;;4943485;28;91960;-79
2021/06/05 08:01:55;;;;;;;4.70;4.28;;;23.40;99.90;;;;;;4942280;28;93163;-79
2021/06/05 08:04:22;;;;;;;5.10;4.70;;;23.50;98.80;;;;;;4946142;28;92218;-78
2021/06/05 08:06:49;;;;;;;5.93;4.93;;;23.80;98.90;;;;;;4943204;28;91797;-78
2021/06/05 08:09:16;;;;;;;5.78;5.15;;;23.60;98.80;;;;;;4940072;28;92522;-78
2021/06/05 08:11:42;;;;;;;5.28;3.70;;;23.50;99.10;;;;;;4940358;28;93586;-77
2021/06/05 08:14:08;;;;;;;5.50;5.00;;;;;;;;;;4943778;28;92110;-78
2021/06/05 08:16:37;;;;;;;8.82;4.50;;;22.60;98.50;;;;;;4944725;28;91689;-78
2021/06/05 08:19:12;;;;;;;3.60;2.95;;;23.10;98.60;;;;;;4944973;28;91434;-78
2021/06/05 08:21:42;;;;;;;4.60;3.25;;;23.00;98.90;;;;;;4943263;28;92295;-79
2021/06/05 08:24:12;;;;;;;4.97;4.53;;;23.10;99.90;;;;;;4944053;28;91943;-78
2021/06/05 08:26:39;;;;;;;5.25;4.75;;;22.20;99.90;;;;;;4943661;28;92004;-77
2021/06/05 08:29:05;;;;;;;4.78;3.78;;;22.70;99.80;;;;;;4945116;28;91365;-77
2021/06/05 08:31:31;;;;;;;4.35;3.80;;;22.80;99.90;;;;;;4943659;28;91993;-77
2021/06/05 08:33:56;;;;;;;6.22;4.05;;;22.90;99.90;;;;;;4943612;28;92019;-78
2021/06/05 08:36:26;;;;;;;5.13;4.50;;;23.00;99.70;;;;;;4940265;28;92963;-78
2021/06/05 08:38:52;;;;;;;6.82;4.30;;;22.90;99.40;;;;;;4938475;28;91555;-78
2021/06/05 08:41:37;;;;;;;7.55;4.55;;;22.90;99.50;;;;;;4940882;28;93045;-77
2021/06/05 08:44:33;;;;;;;6.60;4.65;;;23.00;99.30;;;;;;4945963;28;91736;-78
2021/06/05 08:47:08;;;;;;;6.10;5.60;;;23.40;99.90;;;;;;4953566;28;91931;-78
2021/06/05 08:49:39;;;;;;;5.00;4.50;;;23.00;98.60;;;;;;4942209;28;92493;-78
2021/06/05 08:52:36;;;;;;;5.88;5.32;;;23.90;99.50;;;;;;4942943;28;92784;-78
2021/06/05 08:55:01;;;;;;;4.68;4.18;;;23.60;97.20;;;;;;4935328;28;91927;-77
2021/06/05 08:57:30;;;;;;;7.63;5.75;;;24.00;96.90;;;;;;4943394;28;92003;-78
2021/06/05 09:00:01;;;;;;;5.45;4.55;;;24.40;95.80;;;;;;4937980;28;92107;-83
2021/06/05 09:02:27;;;;;;;5.93;5.45;;;25.20;94.40;;;;;;4941952;28;93890;-83
2021/06/05 09:04:54;;;;;;;5.80;5.30;;;25.40;92.80;;;;;;4944331;28;92804;-85
2021/06/05 09:07:23;;;;;;;5.88;5.10;;;25.90;91.30;;;;;;4947675;28;91752;-83
2021/06/05 09:09:51;;;;;;;5.90;5.40;;;26.30;91.00;;;;;;4939480;28;91988;-85
2021/06/05 09:12:18;;;;;;;7.05;4.55;;;26.40;91.50;;;;;;4943262;28;92339;-83
2021/06/05 09:14:45;;;;;;;4.90;4.50;;;26.80;87.60;;;;;;4944092;28;92997;-83
2021/06/05 09:17:16;;;;;;;4.90;4.53;;;26.80;85.20;;;;;;4949003;28;91595;-84
2021/06/05 09:20:10;;;;;;;4.97;4.68;;;26.90;81.00;;;;;;4938718;28;90537;-87
2021/06/05 09:22:43;;;;;;;4.40;4.10;;;26.80;80.50;;;;;;4940640;28;93638;-86
2021/06/05 09:25:27;;;;;;;4.80;3.92;;;26.90;80.30;;;;;;4945109;28;92942;-86
2021/06/05 09:27:53;;;;;;;4.72;4.30;;;27.00;78.10;;;;;;4944327;28;93032;-86
2021/06/05 09:30:35;;;;;;;4.85;4.45;;;27.00;78.40;;;;;;4941893;28;91823;-86
2021/06/05 09:33:04;;;;;;;5.22;4.72;;;26.80;76.30;;;;;;4942134;28;92215;-84
2021/06/05 09:35:33;;;;;;;5.13;4.82;;;26.60;77.00;;;;;;4945263;28;91991;-85
2021/06/05 09:38:31;;;;;;;4.97;4.47;;;26.40;78.20;;;;;;4939149;28;92654;-84
2021/06/05 09:41:07;;;;;;;5.13;4.63;;;26.40;78.70;;;;;;4938747;28;92497;-86
2021/06/05 09:43:33;;;;;;;4.65;4.35;;;26.40;78.90;;;;;;4940419;28;92263;-87
2021/06/05 09:46:10;;;;;;;4.78;4.47;;;26.40;78.10;;;;;;4936431;28;91183;-86
2021/06/05 09:48:42;;;;;;;5.43;4.47;;;27.00;76.20;;;;;;4939122;28;91860;-84
2021/06/05 09:51:31;;;;;;;4.43;4.13;;;27.10;77.10;;;;;;4942156;28;92615;-86
2021/06/05 09:53:57;;;;;;;5.30;4.80;;;27.70;74.60;;;;;;4943846;28;92796;-85
2021/06/05 09:56:33;;;;;;;4.93;4.47;;;27.90;73.10;;;;;;4948257;28;93135;-85
2021/06/05 09:59:14;;;;;;;5.03;4.63;;;28.50;72.70;;;;;;4951646;28;91624;-84
2021/06/05 10:01:40;;;;;;;6.05;5.55;;;28.50;70.20;;;;;;4941817;28;92026;-86
2021/06/05 10:04:08;;;;;;;6.43;5.40;;;28.60;71.50;;;;;;4947688;28;92011;-87
2021/06/05 10:06:47;;;;;;;5.72;5.20;;;28.30;71.00;;;;;;4942717;28;92019;-83
2021/06/05 10:09:25;;;;;;;5.57;5.13;;;28.00;72.60;;;;;;4940808;28;92034;-84
2021/06/05 10:12:04;;;;;;;5.65;4.85;;;27.60;73.20;;;;;;4937641;28;91375;-83
2021/06/05 10:14:29;;;;;;;5.47;5.07;;;27.40;73.20;;;;;;4930218;28;93377;-84
2021/06/05 10:17:01;;;;;;;5.47;4.97;;;27.20;73.40;;;;;;4948431;28;92064;-84
2021/06/05 10:19:41;;;;;;;6.13;4.63;;;27.00;74.20;;;;;;4935785;28;92832;-83
2021/06/05 10:22:08;;;;;;;;;;;27.10;73.40;;;;;;4939136;28;92754;-84
2021/06/05 10:24:43;;;;;;;4.93;4.63;;;27.10;72.60;;;;;;4948295;28;91961;-84
2021/06/05 10:27:17;;;;;;;4.80;4.50;;;27.30;72.80;;;;;;4944911;28;91990;-82
2021/06/05 10:29:46;;;;;;;4.70;4.30;;;27.50;69.90;;;;;;4947668;28;91923;-83
2021/06/05 10:32:23;;;;;;;5.32;4.85;;;27.40;70.90;;;;;;4948195;28;92021;-85
2021/06/05 10:34:53;;;;;;;5.55;5.10;;;27.10;71.50;;;;;;4947060;28;92986;-83
2021/06/05 10:37:23;;;;;;;5.20;4.80;;;26.50;72.00;;;;;;4946446;28;91790;-85
2021/06/05 10:39:52;;;;;;;5.25;4.85;;;26.10;74.30;;;;;;4944784;28;91958;-83
2021/06/05 10:42:32;;;;;;;5.13;4.72;;;25.70;75.00;;;;;;4939393;28;91972;-84
2021/06/05 10:44:58;;;;;;;5.07;4.68;;;25.30;75.90;;;;;;4941317;28;92852;-83
2021/06/05 10:47:34;;;;;;;5.47;5.07;;;25.00;77.30;;;;;;4946302;28;92309;-85
2021/06/05 10:50:14;;;;;;;5.50;5.00;;;24.70;77.90;;;;;;4944181;28;91689;-86
2021/06/05 10:52:40;;;;;;;5.53;5.13;;;24.40;79.60;;;;;;4947474;28;92025;-84
2021/06/05 10:55:18;;;;;;;6.82;5.50;;;23.90;81.00;;;;;;4937982;28;91982;-84
2021/06/05 10:57:48;;;;;;;6.20;5.70;;;24.00;81.40;;;;;;4947272;28;92022;-86
2021/06/05 11:00:23;;;;;;;5.53;5.10;;;23.90;83.00;;;;;;4939843;28;91906;-84
2021/06/05 11:02:53;;;;;;;5.80;5.07;;;23.80;86.20;;;;;;4954385;28;91076;-85
2021/06/05 11:05:32;;;;;;;5.82;5.40;;;23.80;86.00;;;;;;4950115;28;93238;-84
2021/06/05 11:08:18;;;;;;;6.72;6.13;;;23.60;87.60;;;;;;4956285;28;93352;-85
2021/06/05 11:10:48;;;;;;;6.45;5.90;;;22.90;88.90;;;;;;4951070;28;93108;-85
2021/06/05 11:13:35;;;;;;;6.60;6.00;;;23.10;90.50;;;;;;4952762;28;92068;-85
2021/06/05 11:16:20;;;;;;;6.32;5.72;;;22.70;91.50;;;;;;4952279;28;92416;-83
2021/06/05 11:19:00;;;;;;;6.45;5.85;;;22.40;92.60;;;;;;4952060;28;92395;-82
2021/06/05 11:21:26;;;;;;;7.22;6.18;;;21.90;93.50;;;;;;4952057;28;91990;-82
2021/06/05 11:23:58;;;;;;;6.50;5.90;;;21.90;94.30;;;;;;4954919;28;91302;-85
2021/06/05 11:26:36;;;;;;;7.15;6.45;;;21.60;94.90;;;;;;4950079;28;93337;-84
2021/06/05 11:29:27;;;;;;;7.13;5.95;;;21.70;95.40;;;;;;4946702;28;93157;-85
2021/06/05 11:32:18;;;;;;;6.78;5.97;;;21.40;97.20;;;;;;4946789;28;92072;-87
2021/06/05 11:34:44;;;;;;;;;;;21.50;97.50;;;;;;4944178;28;92053;-85
2021/06/05 11:37:12;;;;;;;8.82;6.22;;;21.50;99.00;;;;;;4947731;28;93769;-88
2021/06/05 11:39:55;;;;;;;7.38;6.68;;;21.50;98.90;;;;;;4951742;28;92891;-85
2021/06/05 11:42:20;;;;;;;7.07;6.35;;;21.20;99.40;;;;;;4941378;28;91597;-87
2021/06/05 11:45:26;;;;;;;7.43;5.85;;;21.10;98.80;;;;;;4945376;28;91981;-85
2021/06/05 11:47:53;;;;;;;3.97;3.10;;;21.10;98.80;;;;;;4937771;28;91558;-88
2021/06/05 11:50:37;;;;;;;4.00;3.72;;;20.20;98.00;;;;;;4933733;28;92322;-87
2021/06/05 11:53:27;;;;;;;4.07;3.70;;;20.30;98.70;;;;;;4956249;28;92075;-85
2021/06/05 11:55:57;;;;;;;4.32;3.22;;;20.00;99.10;;;;;;4944906;28;90518;-87
2021/06/05 11:58:22;;;;;;;3.63;3.42;;;20.20;99.60;;;;;;4948361;28;92520;-84
2021/06/05 12:01:03;;;;;;;3.80;3.47;;;19.70;99.90;;;;;;4949008;28;92365;-85
2021/06/05 12:03:45;;;;;;;3.90;3.40;;;19.50;99.90;;;;;;4937763;28;93315;-82
2021/06/05 12:06:16;;;;;;;4.90;3.10;;;19.60;99.90;;;;;;4949790;28;91903;-84
2021/06/05 12:08:43;;;;;;;3.65;3.38;;;19.00;99.90;;;;;;4948287;28;92313;-81
2021/06/05 12:11:19;;;;;;;3.45;3.15;;;18.80;99.90;;;;;;4935248;28;92189;-83
2021/06/05 12:13:44;;;;;;;3.10;2.90;;;18.30;99.90;;;;;;4947193;28;91813;-83
2021/06/05 12:16:21;;;;;;;3.60;3.28;;;18.00;99.90;;;;;;4948642;28;92085;-82
2021/06/05 12:19:04;;;;;;;3.40;3.20;;;17.50;99.90;;;;;;4948914;28;91826;-83
2021/06/05 12:21:48;;;;;;;2.97;2.78;;;17.70;99.90;;;;;;4940712;28;91238;-83
2021/06/05 12:24:22;;;;;;;3.00;2.80;;;17.70;99.90;;;;;;4940587;28;91212;-84
2021/06/05 12:26:59;;;;;;;2.88;2.60;;;17.90;99.90;;;;;;4938864;28;91532;-83
2021/06/05 12:29:30;;;;;;;3.22;2.40;;;17.80;99.90;;;;;;4943900;28;94905;-85
2021/06/05 12:32:14;;;;;;;3.50;2.90;;;17.90;99.90;;;;;;4958201;28;92961;-85
2021/06/05 12:34:40;;;;;;;2.90;2.70;;;17.80;99.90;;;;;;4929479;28;92432;-85
2021/06/05 12:37:15;;;;;;;2.65;2.45;;;17.70;99.90;;;;;;4947003;28;91953;-85
2021/06/05 12:39:57;;;;;;;4.90;2.90;;;17.80;99.90;;;;;;4937722;28;92337;-86
2021/06/05 12:42:36;;;;;;;2.63;2.33;;;17.60;99.90;;;;;;4944913;28;92482;-87
2021/06/05 12:45:14;;;;;;;2.70;2.50;;;17.60;99.90;;;;;;4936028;28;91448;-85
2021/06/05 12:47:45;;;;;;;3.50;3.20;;;17.40;99.90;;;;;;4943380;28;90881;-86
2021/06/05 12:50:16;;;;;;;2.85;2.65;;;17.40;99.90;;;;;;4941454;28;92086;-86
2021/06/05 12:52:45;;;;;;;3.25;2.90;;;17.40;99.90;;;;;;4939324;28;91498;-84
2021/06/05 12:55:20;;;;;;;3.72;3.33;;;17.30;99.90;;;;;;4938373;28;92702;-86
2021/06/05 12:57:52;;;;;;;3.10;2.90;;;17.20;99.90;;;;;;4942261;28;92067;-84
2021/06/05 13:00:38;;;;;;;3.80;2.63;;;17.20;99.90;;;;;;4940085;28;92664;-85
2021/06/05 13:03:07;;;;;;;4.13;2.60;;;17.20;99.90;;;;;;4941579;28;92004;-83
2021/06/05 13:05:36;;;;;;;3.00;2.70;;;17.10;99.90;;;;;;4945628;28;91960;-83
2021/06/05 13:08:21;;;;;;;3.78;3.08;;;17.10;99.90;;;;;;4941274;28;92165;-86
2021/06/05 13:10:53;;;;;;;3.58;2.65;;;17.00;99.90;;;;;;4937507;28;94096;-83
2021/06/05 13:13:20;;;;;;;2.47;2.38;;;16.70;99.90;;;;;;4938951;28;91295;-87
2021/06/05 13:16:15;;;;;;;3.75;2.85;;;16.60;99.90;;;;;;4945327;28;91558;-84
2021/06/05 13:18:46;;;;;;;4.03;2.40;;;16.40;99.90;;;;;;4913952;28;91991;-83
2021/06/05 13:21:31;;;;;;;2.42;2.33;;;16.30;99.90;;;;;;4937908;28;92316;-84
2021/06/05 13:24:12;;;;;;;2.47;2.38;;;16.40;99.90;;;;;;4936781;28;92140;-84
2021/06/05 13:26:45;;;;;;;2.90;2.70;;;16.40;99.90;;;;;;4940518;28;92041;-83
2021/06/05 13:29:34;;;;;;;3.20;2.95;;;16.40;99.90;;;;;;4935832;28;91821;-82
2021/06/05 13:32:04;;;;;;;2.78;2.67;;;16.40;99.90;;;;;;4938462;28;92451;-83
2021/06/05 13:34:38;;;;;;;2.70;2.50;;;16.50;99.90;;;;;;4937732;28;94503;-83
2021/06/05 13:37:29;;;;;;;2.72;2.50;;;16.50;99.90;;;;;;4945414;28;91852;-84
2021/06/05 13:40:05;;;;;;;;;;;16.50;99.90;;;;;;4927368;28;91303;-84
2021/06/05 13:42:34;;;;;;;2.50;2.38;;;16.60;99.90;;;;;;4946068;28;92221;-84
2021/06/05 13:45:01;;;;;;;2.47;2.28;;;16.70;99.90;;;;;;4941110;28;91958;-83
2021/06/05 13:47:27;;;;;;;8.25;2.40;;;16.70;99.90;;;;;;4944030;28;92866;-84
2021/06/05 13:49:53;;;;;;;4.22;3.83;;;16.70;99.90;;;;;;4929285;28;91966;-83
2021/06/05 13:52:28;;;;;;;2.72;2.53;;;16.70;99.90;;;;;;4938199;28;93362;-83
2021/06/05 13:54:59;;;;;;;3.47;3.15;;;16.70;99.90;;;;;;4944496;28;92196;-83
2021/06/05 13:57:26;;;;;;;3.83;3.40;;;16.70;99.90;;;;;;4935283;28;91935;-85
2021/06/05 13:59:52;;;;;;;3.58;3.05;;;17.00;99.90;;;;;;4942972;28;91915;-86
2021/06/05 14:02:18;;;;;;;3.78;3.55;;;16.90;99.90;;;;;;4940778;28;92264;-85
2021/06/05 14:04:49;;;;;;;3.70;3.40;;;17.20;99.90;;;;;;4947482;28;91304;-86
2021/06/05 14:07:19;;;;;;;3.55;3.25;;;17.20;99.90;;;;;;4928048;28;91802;-85
2021/06/05 14:09:47;;;;;;;3.90;2.80;;;17.60;99.90;;;;;;4935550;28;91914;-83
2021/06/05 14:12:16;;;;;;;3.60;3.30;;;17.50;99.90;;;;;;4946391;28;93989;-85
2021/06/05 14:14:42;;;;;;;2.95;2.72;;;17.60;99.90;;;;;;4940433;28;92866;-84
2021/06/05 14:17:10;;;;;;;3.30;3.10;;;17.50;99.90;;;;;;4943102;28;92003;-84
2021/06/05 14:19:36;;;;;;;2.80;2.60;;;17.60;99.90;;;;;;4942541;28;92233;-84
2021/06/05 14:22:03;;;;;;;2.70;2.50;;;17.60;99.90;;;;;;4938824;28;92751;-84
2021/06/05 14:24:28;;;;;;;2.97;2.88;;;17.30;99.90;;;;;;4922135;28;95245;-85
2021/06/05 14:26:54;;;;;;;2.70;2.60;;;17.10;99.90;;;;;;4937359;28;92291;-86
2021/06/05 14:29:21;;;;;;;2.75;2.63;;;17.00;99.90;;;;;;4946685;28;91318;-84
2021/06/05 14:31:46;;;;;;;3.13;2.92;;;16.90;99.90;;;;;;4944428;28;91985;-86
2021/06/05 14:34:12;;;;;;;3.10;2.90;;;17.00;99.90;;;;;;4948662;28;92444;-86
2021/06/05 14:36:38;;;;;;;2.92;2.72;;;17.00;99.90;;;;;;4949173;28;92870;-85
2021/06/05 14:39:05;;;;;;;2.60;2.40;;;17.20;99.90;;;;;;4943183;28;92633;-84
2021/06/05 14:41:30;;;;;;;2.90;2.70;;;17.30;99.90;;;;;;4944047;28;92206;-85
2021/06/05 14:43:56;;;;;;;2.80;2.60;;;17.40;99.90;;;;;;4943211;28;92253;-85
2021/06/05 14:46:22;;;;;;;2.90;2.70;;;17.40;99.90;;;;;;4944272;28;91962;-86
2021/06/05 14:48:52;;;;;;;2.75;2.63;;;17.50;99.90;;;;;;4943879;28;91325;-86
2021/06/05 14:51:18;;;;;;;3.13;2.93;;;17.50;99.90;;;;;;4941371;28;92399;-83
2021/06/05 14:53:44;;;;;;;3.28;2.97;;;17.60;99.90;;;;;;4942938;28;93312;-85
2021/06/05 14:56:14;;;;;;;3.05;2.75;;;17.70;99.90;;;;;;4949512;28;91979;-85
2021/06/05 14:58:42;;;;;;;3.58;3.33;;;17.70;99.90;;;;;;4940297;28;91824;-85
2021/06/05 15:01:08;;;;;;;3.10;2.80;;;17.80;99.90;;;;;;4947572;28;94071;-85
2021/06/05 15:03:33;;;;;;;3.85;3.53;;;17.80;99.90;;;;;;4947788;28;92159;-85
2021/06/05 15:06:00;;;;;;;3.15;2.97;;;17.90;99.90;;;;;;4942935;28;91788;-85
2021/06/05 15:08:26;;;;;;;2.90;2.70;;;17.80;99.90;;;;;;4948092;28;92697;-84
2021/06/05 15:10:52;;;;;;;2.90;2.72;;;17.80;99.90;;;;;;4943075;28;91602;-85
2021/06/05 15:13:18;;;;;;;2.72;2.53;;;17.80;99.90;;;;;;4951855;28;91467;-85
2021/06/05 15:15:45;;;;;;;2.90;2.70;;;17.60;99.90;;;;;;4947881;28;91990;-85
2021/06/05 15:18:12;;;;;;;3.28;3.08;;;17.50;99.90;;;;;;4949464;28;91370;-83
2021/06/05 15:20:39;;;;;;;3.35;2.92;;;17.40;99.90;;;;;;4944304;28;92642;-84
2021/06/05 15:23:08;;;;;;;3.38;3.13;;;17.20;99.90;;;;;;4947840;28;91982;-85
2021/06/05 15:25:37;;;;;;;3.20;3.00;;;17.00;99.90;;;;;;4949604;28;92923;-84
2021/06/05 15:28:05;;;;;;;3.58;3.10;;;16.90;99.90;;;;;;4952423;28;92093;-86
2021/06/05 15:30:32;;;;;;;3.13;2.92;;;16.80;99.90;;;;;;4945551;28;92390;-83
2021/06/05 15:33:00;;;;;;;4.18;3.75;;;16.80;99.90;;;;;;4946692;28;92115;-86
2021/06/05 15:35:28;;;;;;;4.47;3.15;;;16.70;99.90;;;;;;4946121;28;92324;-86
2021/06/05 15:37:54;;;;;;;2.75;2.55;;;16.70;99.90;;;;;;4944862;28;92025;-86
2021/06/05 15:40:24;;;;;;;17.67;3.55;;;16.70;99.90;;;;;;4945816;28;92313;-86
2021/06/05 15:42:49;;;;;;;3.30;3.17;;;16.70;99.90;;;;;;4946716;28;92050;-87
2021/06/05 15:45:21;;;;;;;3.72;3.42;;;16.70;99.90;;;;;;4941581;28;92197;-84
2021/06/05 15:47:48;;;;;;;3.42;2.78;;;16.70;99.90;;;;;;4940579;28;93957;-83
2021/06/05 15:50:16;;;;;;;3.08;2.90;;;16.80;99.90;;;;;;4946094;28;93024;-86
2021/06/05 15:52:42;;;;;;;3.83;3.42;;;17.00;99.90;;;;;;4950981;28;95733;-86
2021/06/05 15:55:09;;;;;;;5.15;3.22;;;17.20;99.90;;;;;;4952305;28;91913;-84
2021/06/05 15:57:35;;;;;;;3.75;3.47;;;17.40;99.90;;;;;;4942785;28;91989;-85
2021/06/05 16:00:05;;;;;;;3.33;3.13;;;17.50;99.90;;;;;;4954369;28;91772;-84
2021/06/05 16:02:31;;;;;;;3.00;2.80;;;17.60;99.90;;;;;;4953618;28;92128;-85
2021/06/05 16:04:56;;;;;;;3.13;2.92;;;22.60;99.90;;;;;;4947741;28;91608;-85